Hobart, OK

2:28 AM CDT on September 04, 2015 (GMT -0500)
Hobart Municipal | | Change Station
CLOSE
Current Station
Airport
Location: Hobart,
Elevation: 1565 ft
Nearby Weather Stations

Elev 1565 ft 34.99 °N, 99.05 °W | Updated 35 minutes ago

Clear
Clear
78 °F
Feels Like 78 °F
N
10
Wind Variable Wind from South

Today
High -- | Low -- °F
--% Chance of Precip.
Yesterday
High -- | Low -- °F
Precip. -- in
7:11 AM 7:59 PM
Waning Gibbous, 62% visible
Pressure 29.84 in
Visibility 10.0 miles
Clouds Clear
Dew Point 61 °F
Humidity 56%
Rainfall 0.00 in
Snow Depth Not available.
UV 0 out of 12
Pollen 10.10 out of 12
Air Quality Not available.
Flu Activity Not available.
METAR KHBR 040653Z AUTO 17009KT 10SM CLR 26/16 A2991 RMK AO2 SLP105 T02560161
Pressure 29.84 in
Visibility 10.0 miles
Clouds Clear
Dew Point 61 °F
Humidity 56%
Rainfall 0.00 in
Snow Depth Not available.
UV 0 out of 12
Pollen 10.10 out of 12
Air Quality Not available.
Flu Activity Not available.
METAR KHBR 040653Z AUTO 17009KT 10SM CLR 26/16 A2991 RMK AO2 SLP105 T02560161

10-Day Weather Forecast

×

Almanac

Astronomy

Sep. 04, 2015 Rise Set
Actual Time
Civil Twilight
Nautical Twilight
Astronomical Twilight
Moon
Length of Visible Light
Length of Day
Tomorrow will be .
, % of the Moon is Illuminated

Today's Extremes

State Highs State Lows

Community

WunderPhotos

Upload Photos

1,852,132 photos uploaded!

WunderBlogs® & News

Nearby

Air Quality

  Air Quality AQ Index Pollutant
Not available.

Snow Depth

Station Depth Elevation

Earthquake Activity

City Distance Mag. Time & Date
Minimum magnitude displayed is 2.5.

Coastal Water Temperatures

Place Temperature

Stations

Nearby Weather Stations

Station Location Temp. Windchill Dew Point Humidity Wind Precip. Elev Updated Type